AFL1315 URMM-UUEE
Flight info
| Callsign | AFL1315 |
|---|---|
| Flight time | N/A |
| Altitude | 37000 |
| Route | URILU5L URILU R227 BEMES DCT VULFI DCT TUVGI/K0843F380 DCT EVZUN DCT ZIZAR DCT VAZLU DCT UZZID DCT NOKLI/K0841F370 N72 WGD G481 OBABI T619 LUGIL/K0843F380 T619 UMRAL/K0843F390 P163 LADIM/K0846F380 P163 GOLRI L736 OLOPI OLOPI3F |
| Aircraft | A20N/M-SDE2E3FGHIRWXY/LB1 |
Departure
| Time | 2026-04-17 18:56 |
|---|---|
| Airport | Mineralnye Vody Airport (URMM) |
Arrival
| Time | N/A |
|---|---|
| Airport | Sheremetyevo International Airport (UUEE) |
| Time | Latitude | Longitude | Altitude | Speed | Heading |
|---|---|---|---|---|---|
| 2026-04-17 18:14 | 44.21837 | 43.08857 | 1054 ft | 0 kts | 212° |
| 2026-04-17 18:45 | 44.21849 | 43.08868 | 1054 ft | 2 kts | 213° |
| 2026-04-17 18:45 | 44.21861 | 43.08879 | 1054 ft | 2 kts | 213° |
| 2026-04-17 18:46 | 44.21874 | 43.08890 | 1054 ft | 2 kts | 213° |
| 2026-04-17 18:46 | 44.21886 | 43.08903 | 1054 ft | 2 kts | 241° |
| 2026-04-17 18:46 | 44.21890 | 43.08923 | 1054 ft | 2 kts | 278° |
| 2026-04-17 18:46 | 44.21883 | 43.08942 | 1054 ft | 2 kts | 310° |
| 2026-04-17 18:47 | 44.21878 | 43.08952 | 1054 ft | 0 kts | 302° |
| 2026-04-17 18:50 | 44.21881 | 43.08945 | 1054 ft | 3 kts | 302° |
| 2026-04-17 18:50 | 44.21905 | 43.08893 | 1054 ft | 9 kts | 302° |
| 2026-04-17 18:51 | 44.21950 | 43.08793 | 1054 ft | 13 kts | 302° |
| 2026-04-17 18:51 | 44.22002 | 43.08670 | 1054 ft | 15 kts | 287° |
| 2026-04-17 18:51 | 44.22044 | 43.08531 | 1054 ft | 16 kts | 302° |
| 2026-04-17 18:51 | 44.22108 | 43.08391 | 1054 ft | 18 kts | 301° |
| 2026-04-17 18:52 | 44.22180 | 43.08234 | 1054 ft | 19 kts | 302° |
| 2026-04-17 18:52 | 44.22257 | 43.08065 | 1054 ft | 21 kts | 303° |
| 2026-04-17 18:52 | 44.22337 | 43.07883 | 1054 ft | 22 kts | 302° |
| 2026-04-17 18:52 | 44.22422 | 43.07693 | 1054 ft | 23 kts | 302° |
| 2026-04-17 18:53 | 44.22512 | 43.07492 | 1054 ft | 24 kts | 302° |
| 2026-04-17 18:53 | 44.22603 | 43.07291 | 1054 ft | 24 kts | 302° |
| 2026-04-17 18:53 | 44.22675 | 43.07160 | 1054 ft | 16 kts | 330° |
| 2026-04-17 18:53 | 44.22791 | 43.07118 | 1054 ft | 19 kts | 345° |
| 2026-04-17 18:54 | 44.22929 | 43.07071 | 1054 ft | 19 kts | 347° |
| 2026-04-17 18:54 | 44.23022 | 43.07120 | 1054 ft | 16 kts | 85° |
| 2026-04-17 18:54 | 44.23019 | 43.07288 | 1054 ft | 18 kts | 92° |
| 2026-04-17 18:54 | 44.23010 | 43.07474 | 1054 ft | 19 kts | 99° |
| 2026-04-17 18:55 | 44.22971 | 43.07653 | 1054 ft | 18 kts | 116° |
| 2026-04-17 18:55 | 44.22949 | 43.07704 | 1054 ft | 0 kts | 122° |
| 2026-04-17 18:55 | 44.22949 | 43.07705 | 1054 ft | 0 kts | 122° |
| 2026-04-17 18:55 | 44.22874 | 43.07872 | 1054 ft | 54 kts | 122° |
| 2026-04-17 18:56 | 44.22545 | 43.08598 | 1054 ft | 119 kts | 122° |
| 2026-04-17 18:56 | 44.22007 | 43.09789 | 1076 ft | 168 kts | 121° |
| 2026-04-17 18:56 | 44.21378 | 43.11188 | 1640 ft | 172 kts | 121° |
| 2026-04-17 18:56 | 44.20748 | 43.12575 | 2380 ft | 173 kts | 121° |
| 2026-04-17 18:57 | 44.20113 | 43.13974 | 3094 ft | 175 kts | 122° |
| 2026-04-17 18:57 | 44.19435 | 43.15486 | 3509 ft | 192 kts | 122° |
| 2026-04-17 18:57 | 44.18670 | 43.17169 | 3843 ft | 217 kts | 122° |
| 2026-04-17 18:57 | 44.17848 | 43.18975 | 4380 ft | 231 kts | 122° |
| 2026-04-17 18:58 | 44.16942 | 43.20935 | 4838 ft | 251 kts | 123° |
| 2026-04-17 18:58 | 44.15979 | 43.23022 | 5580 ft | 258 kts | 123° |
| 2026-04-17 18:58 | 44.15012 | 43.25135 | 6324 ft | 265 kts | 123° |
| 2026-04-17 18:58 | 44.14027 | 43.27288 | 7103 ft | 269 kts | 123° |
| 2026-04-17 18:59 | 44.13015 | 43.29501 | 7845 ft | 275 kts | 122° |
| 2026-04-17 18:59 | 44.12192 | 43.31945 | 8534 ft | 283 kts | 102° |
| 2026-04-17 18:59 | 44.12125 | 43.34668 | 9227 ft | 288 kts | 81° |
| 2026-04-17 18:59 | 44.12478 | 43.37423 | 9956 ft | 293 kts | 78° |
| 2026-04-17 19:00 | 44.12866 | 43.40203 | 10563 ft | 302 kts | 78° |
| 2026-04-17 19:00 | 44.13268 | 43.43136 | 10928 ft | 319 kts | 78° |
| 2026-04-17 19:00 | 44.13681 | 43.46257 | 11255 ft | 337 kts | 79° |
| 2026-04-17 19:00 | 44.14101 | 43.49515 | 11561 ft | 354 kts | 79° |
| 2026-04-17 19:01 | 44.14539 | 43.52977 | 11862 ft | 371 kts | 79° |
| 2026-04-17 19:01 | 44.14991 | 43.56578 | 12191 ft | 385 kts | 79° |
| 2026-04-17 19:01 | 44.15451 | 43.60266 | 12709 ft | 391 kts | 79° |
| 2026-04-17 19:01 | 44.15919 | 43.64027 | 13024 ft | 392 kts | 79° |
| 2026-04-17 19:02 | 44.16359 | 43.67764 | 13057 ft | 392 kts | 83° |
| 2026-04-17 19:02 | 44.16523 | 43.71499 | 13054 ft | 392 kts | 90° |
| 2026-04-17 19:02 | 44.16324 | 43.75341 | 13258 ft | 400 kts | 97° |
| 2026-04-17 19:02 | 44.15916 | 43.79122 | 13965 ft | 401 kts | 99° |
| 2026-04-17 19:03 | 44.15465 | 43.82970 | 14666 ft | 402 kts | 99° |
| 2026-04-17 19:03 | 44.15011 | 43.86831 | 15242 ft | 407 kts | 99° |
| 2026-04-17 19:03 | 44.14561 | 43.90690 | 15802 ft | 411 kts | 99° |
| 2026-04-17 19:03 | 44.14102 | 43.94651 | 16361 ft | 415 kts | 98° |
| 2026-04-17 19:04 | 44.13646 | 43.98608 | 16916 ft | 418 kts | 98° |
| 2026-04-17 19:04 | 44.13187 | 44.02584 | 17447 ft | 421 kts | 98° |
| 2026-04-17 19:04 | 44.12719 | 44.06627 | 17994 ft | 424 kts | 98° |
| 2026-04-17 19:04 | 44.12248 | 44.10693 | 18516 ft | 428 kts | 98° |
| 2026-04-17 19:05 | 44.11772 | 44.14774 | 19012 ft | 431 kts | 98° |
| 2026-04-17 19:05 | 44.11294 | 44.18871 | 19489 ft | 434 kts | 98° |
| 2026-04-17 19:05 | 44.10804 | 44.23060 | 19948 ft | 438 kts | 98° |
| 2026-04-17 19:05 | 44.10314 | 44.27244 | 20402 ft | 442 kts | 98° |
| 2026-04-17 19:06 | 44.09824 | 44.31421 | 20828 ft | 446 kts | 97° |
| 2026-04-17 19:06 | 44.09317 | 44.35721 | 21262 ft | 449 kts | 97° |
| 2026-04-17 19:06 | 44.08809 | 44.40029 | 21668 ft | 453 kts | 97° |
| 2026-04-17 19:06 | 44.08295 | 44.44350 | 22089 ft | 456 kts | 97° |
| 2026-04-17 19:07 | 44.07782 | 44.48667 | 22471 ft | 460 kts | 97° |
| 2026-04-17 19:07 | 44.07258 | 44.53045 | 22868 ft | 463 kts | 97° |
| 2026-04-17 19:07 | 44.06725 | 44.57483 | 23266 ft | 466 kts | 97° |
| 2026-04-17 19:07 | 44.06227 | 44.61919 | 23657 ft | 469 kts | 95° |
| 2026-04-17 19:08 | 44.05765 | 44.66425 | 24037 ft | 472 kts | 96° |
| 2026-04-17 19:08 | 44.05311 | 44.70945 | 24406 ft | 474 kts | 96° |
| 2026-04-17 19:08 | 44.04851 | 44.75468 | 24762 ft | 477 kts | 96° |
| 2026-04-17 19:08 | 44.04384 | 44.80016 | 25085 ft | 480 kts | 96° |
| 2026-04-17 19:09 | 44.03905 | 44.84625 | 25418 ft | 483 kts | 95° |
| 2026-04-17 19:09 | 44.03419 | 44.89266 | 25746 ft | 486 kts | 95° |
| 2026-04-17 19:09 | 44.02932 | 44.93898 | 26038 ft | 489 kts | 96° |
| 2026-04-17 19:09 | 44.02439 | 44.98562 | 26334 ft | 491 kts | 96° |
| 2026-04-17 19:10 | 44.01943 | 45.03225 | 26593 ft | 494 kts | 96° |
| 2026-04-17 19:10 | 44.01433 | 45.08005 | 26874 ft | 496 kts | 96° |
| 2026-04-17 19:10 | 44.00926 | 45.12728 | 27162 ft | 498 kts | 96° |
| 2026-04-17 19:10 | 44.00415 | 45.17449 | 27533 ft | 497 kts | 96° |
| 2026-04-17 19:11 | 43.99904 | 45.22178 | 27924 ft | 496 kts | 96° |
| 2026-04-17 19:11 | 43.99391 | 45.26853 | 28299 ft | 496 kts | 95° |
| 2026-04-17 19:11 | 43.98863 | 45.31601 | 28635 ft | 496 kts | 95° |
| 2026-04-17 19:11 | 43.98340 | 45.36290 | 28950 ft | 497 kts | 95° |
| 2026-04-17 19:12 | 43.97808 | 45.41038 | 29283 ft | 497 kts | 95° |
| 2026-04-17 19:12 | 43.97276 | 45.45769 | 29633 ft | 496 kts | 95° |
| 2026-04-17 19:12 | 43.96745 | 45.50468 | 29981 ft | 496 kts | 95° |
| 2026-04-17 19:12 | 43.96212 | 45.55174 | 30307 ft | 496 kts | 95° |
| 2026-04-17 19:13 | 43.95676 | 45.59900 | 30640 ft | 496 kts | 95° |
| 2026-04-17 19:13 | 43.95144 | 45.64569 | 30977 ft | 495 kts | 95° |
| 2026-04-17 19:13 | 43.94604 | 45.69280 | 31282 ft | 495 kts | 95° |
| 2026-04-17 19:13 | 43.94064 | 45.73970 | 31575 ft | 495 kts | 96° |
| 2026-04-17 19:14 | 43.93520 | 45.78684 | 31859 ft | 495 kts | 95° |
| 2026-04-17 19:14 | 43.93042 | 45.83430 | 32128 ft | 493 kts | 92° |
| 2026-04-17 19:14 | 43.92760 | 45.88106 | 32391 ft | 491 kts | 88° |
| 2026-04-17 19:14 | 43.92683 | 45.92831 | 32676 ft | 488 kts | 84° |
| 2026-04-17 19:15 | 43.92809 | 45.97499 | 32940 ft | 485 kts | 81° |
| 2026-04-17 19:15 | 43.93111 | 46.02129 | 33228 ft | 482 kts | 78° |
| 2026-04-17 19:15 | 43.93462 | 46.06787 | 33509 ft | 481 kts | 78° |
| 2026-04-17 19:15 | 43.93811 | 46.11380 | 33758 ft | 481 kts | 78° |
| 2026-04-17 19:16 | 43.94157 | 46.15983 | 34005 ft | 480 kts | 78° |
| 2026-04-17 19:16 | 43.94492 | 46.20525 | 34251 ft | 480 kts | 78° |
| 2026-04-17 19:16 | 43.94825 | 46.25140 | 34482 ft | 479 kts | 78° |
| 2026-04-17 19:16 | 43.95153 | 46.29738 | 34687 ft | 478 kts | 78° |
| 2026-04-17 19:17 | 43.95478 | 46.34299 | 34880 ft | 478 kts | 78° |
| 2026-04-17 19:17 | 43.95800 | 46.38890 | 35062 ft | 478 kts | 78° |
| 2026-04-17 19:17 | 43.96116 | 46.43408 | 35242 ft | 477 kts | 78° |
| 2026-04-17 19:17 | 43.96435 | 46.47988 | 35432 ft | 477 kts | 79° |
| 2026-04-17 19:18 | 43.96750 | 46.52573 | 35635 ft | 475 kts | 78° |
| 2026-04-17 19:18 | 43.97057 | 46.57068 | 35847 ft | 474 kts | 79° |
| 2026-04-17 19:18 | 43.97368 | 46.61651 | 36034 ft | 473 kts | 79° |
| 2026-04-17 19:18 | 43.97677 | 46.66189 | 36158 ft | 473 kts | 79° |
| 2026-04-17 19:19 | 43.97979 | 46.70690 | 36272 ft | 474 kts | 79° |
| 2026-04-17 19:19 | 43.98286 | 46.75275 | 36470 ft | 473 kts | 79° |
| 2026-04-17 19:19 | 43.98584 | 46.79768 | 36674 ft | 472 kts | 79° |
| 2026-04-17 19:19 | 43.98883 | 46.84296 | 36868 ft | 471 kts | 79° |
| 2026-04-17 19:20 | 43.99179 | 46.88801 | 37037 ft | 471 kts | 79° |
| 2026-04-17 19:20 | 43.99472 | 46.93285 | 37128 ft | 472 kts | 79° |
| 2026-04-17 19:20 | 44.00058 | 47.02345 | 37136 ft | 471 kts | 79° |
| 2026-04-17 19:21 | 44.00634 | 47.11374 | 37141 ft | 470 kts | 79° |
| 2026-04-17 19:21 | 44.01206 | 47.20448 | 37143 ft | 470 kts | 79° |
| 2026-04-17 19:22 | 44.01766 | 47.29444 | 37141 ft | 470 kts | 79° |
| 2026-04-17 19:22 | 44.02319 | 47.38423 | 37142 ft | 469 kts | 80° |
| 2026-04-17 19:23 | 44.03135 | 47.51930 | 37131 ft | 469 kts | 80° |
| 2026-04-17 19:24 | 44.03672 | 47.60967 | 37133 ft | 469 kts | 80° |
| 2026-04-17 19:24 | 44.04203 | 47.70016 | 37126 ft | 469 kts | 80° |
| 2026-04-17 19:25 | 44.04724 | 47.79021 | 37127 ft | 469 kts | 81° |
| 2026-04-17 19:25 | 44.05238 | 47.88018 | 37113 ft | 469 kts | 81° |
| 2026-04-17 19:26 | 44.05746 | 47.97036 | 37117 ft | 469 kts | 81° |
| 2026-04-17 19:26 | 44.06244 | 48.06036 | 37135 ft | 468 kts | 81° |
| 2026-04-17 19:27 | 44.06734 | 48.15010 | 37136 ft | 468 kts | 81° |
| 2026-04-17 19:27 | 44.07219 | 48.24048 | 37141 ft | 469 kts | 81° |
| 2026-04-17 19:28 | 44.07694 | 48.33040 | 37152 ft | 468 kts | 81° |
| 2026-04-17 19:28 | 44.08172 | 48.42021 | 37143 ft | 468 kts | 81° |
| 2026-04-17 19:29 | 44.08642 | 48.51017 | 37139 ft | 467 kts | 81° |
| 2026-04-17 19:29 | 44.09101 | 48.59968 | 37159 ft | 468 kts | 82° |
| 2026-04-17 19:30 | 44.09553 | 48.68987 | 37167 ft | 468 kts | 83° |
| 2026-04-17 19:30 | 44.09996 | 48.77957 | 37166 ft | 466 kts | 82° |
| 2026-04-17 19:31 | 44.10431 | 48.86929 | 37164 ft | 465 kts | 83° |
| 2026-04-17 19:31 | 44.10860 | 48.95847 | 37169 ft | 465 kts | 82° |
| 2026-04-17 19:31 | 44.11470 | 49.00269 | 37153 ft | 457 kts | 65° |
| 2026-04-17 19:32 | 44.12972 | 49.04032 | 37172 ft | 447 kts | 46° |
| 2026-04-17 19:32 | 44.15199 | 49.06967 | 37180 ft | 437 kts | 29° |
| 2026-04-17 19:32 | 44.17870 | 49.08829 | 37185 ft | 429 kts | 13° |
| 2026-04-17 19:32 | 44.20788 | 49.09554 | 37186 ft | 422 kts | 358° |
| 2026-04-17 19:33 | 44.23676 | 49.09129 | 37187 ft | 417 kts | 342° |
| 2026-04-17 19:33 | 44.26354 | 49.07619 | 37192 ft | 415 kts | 328° |
| 2026-04-17 19:33 | 44.28643 | 49.05226 | 37201 ft | 414 kts | 319° |
| 2026-04-17 19:34 | 44.33478 | 49.00979 | 37196 ft | 415 kts | 334° |
| 2026-04-17 19:34 | 44.38747 | 48.97786 | 37187 ft | 415 kts | 335° |
| 2026-04-17 19:35 | 44.44076 | 48.94628 | 37191 ft | 415 kts | 335° |
| 2026-04-17 19:35 | 44.49390 | 48.91505 | 37188 ft | 415 kts | 336° |
| 2026-04-17 19:36 | 44.54714 | 48.88383 | 37190 ft | 416 kts | 336° |
| 2026-04-17 19:36 | 44.60033 | 48.85265 | 37194 ft | 415 kts | 335° |
| 2026-04-17 19:37 | 44.65349 | 48.82140 | 37188 ft | 415 kts | 335° |
| 2026-04-17 19:37 | 44.70687 | 48.78997 | 37186 ft | 415 kts | 336° |
| 2026-04-17 19:38 | 44.75977 | 48.75877 | 37192 ft | 415 kts | 336° |
| 2026-04-17 19:38 | 44.81324 | 48.72718 | 37192 ft | 415 kts | 336° |
| 2026-04-17 19:39 | 44.86618 | 48.69584 | 37193 ft | 414 kts | 336° |
| 2026-04-17 19:39 | 44.91922 | 48.66438 | 37190 ft | 413 kts | 336° |
| 2026-04-17 19:40 | 44.97142 | 48.63335 | 37190 ft | 415 kts | 336° |
| 2026-04-17 19:40 | 45.02445 | 48.60177 | 37184 ft | 414 kts | 335° |
| 2026-04-17 19:41 | 45.07765 | 48.57001 | 37182 ft | 413 kts | 335° |
| 2026-04-17 19:41 | 45.12703 | 48.54048 | 37185 ft | 413 kts | 336° |
| 2026-04-17 19:42 | 45.17650 | 48.51083 | 37187 ft | 414 kts | 336° |
| 2026-04-17 19:42 | 45.22841 | 48.47967 | 37188 ft | 413 kts | 335° |
| 2026-04-17 19:43 | 45.28139 | 48.44782 | 37180 ft | 413 kts | 335° |
| 2026-04-17 19:43 | 45.33432 | 48.41591 | 37189 ft | 414 kts | 335° |
| 2026-04-17 19:44 | 45.38695 | 48.38412 | 37186 ft | 414 kts | 336° |
| 2026-04-17 19:44 | 45.43982 | 48.35213 | 37188 ft | 414 kts | 335° |
| 2026-04-17 19:45 | 45.49273 | 48.32003 | 37187 ft | 414 kts | 335° |
| 2026-04-17 19:45 | 45.54567 | 48.28787 | 37186 ft | 413 kts | 335° |
| 2026-04-17 19:46 | 45.59824 | 48.25587 | 37183 ft | 413 kts | 335° |
| 2026-04-17 19:46 | 45.65091 | 48.22372 | 37181 ft | 413 kts | 335° |
| 2026-04-17 19:47 | 45.70391 | 48.19133 | 37178 ft | 413 kts | 335° |
| 2026-04-17 19:47 | 45.75658 | 48.15907 | 37181 ft | 414 kts | 335° |
| 2026-04-17 19:48 | 45.80941 | 48.12664 | 37180 ft | 413 kts | 335° |
| 2026-04-17 19:48 | 45.86195 | 48.09432 | 37177 ft | 413 kts | 335° |
| 2026-04-17 19:49 | 45.91463 | 48.06186 | 37177 ft | 414 kts | 335° |
| 2026-04-17 19:49 | 45.96746 | 48.02922 | 37184 ft | 414 kts | 335° |
| 2026-04-17 19:50 | 46.01996 | 47.99424 | 37188 ft | 414 kts | 329° |
| 2026-04-17 19:50 | 46.06734 | 47.94830 | 37199 ft | 413 kts | 320° |
| 2026-04-17 19:51 | 46.10858 | 47.89106 | 37184 ft | 412 kts | 311° |
| 2026-04-17 19:51 | 46.14254 | 47.82488 | 37195 ft | 411 kts | 304° |
| 2026-04-17 19:52 | 46.17368 | 47.75614 | 37190 ft | 411 kts | 304° |
| 2026-04-17 19:52 | 46.20474 | 47.68711 | 37191 ft | 409 kts | 304° |
| 2026-04-17 19:53 | 46.23550 | 47.61864 | 37183 ft | 410 kts | 304° |
| 2026-04-17 19:53 | 46.26639 | 47.54974 | 37193 ft | 410 kts | 304° |
| 2026-04-17 19:54 | 46.29737 | 47.48048 | 37189 ft | 408 kts | 304° |
| 2026-04-17 19:54 | 46.32810 | 47.41163 | 37186 ft | 408 kts | 304° |
| 2026-04-17 19:55 | 46.35865 | 47.34298 | 37189 ft | 407 kts | 303° |
| 2026-04-17 19:55 | 46.38921 | 47.27420 | 37185 ft | 407 kts | 303° |
| 2026-04-17 19:56 | 46.41960 | 47.20561 | 37198 ft | 407 kts | 303° |
| 2026-04-17 19:56 | 46.45007 | 47.13665 | 37188 ft | 405 kts | 303° |
| 2026-04-17 19:57 | 46.48034 | 47.06800 | 37186 ft | 404 kts | 303° |
| 2026-04-17 19:57 | 46.51038 | 46.99970 | 37180 ft | 403 kts | 303° |
| 2026-04-17 19:58 | 46.54040 | 46.93128 | 37181 ft | 402 kts | 303° |
| 2026-04-17 19:58 | 46.57046 | 46.86258 | 37178 ft | 402 kts | 303° |
| 2026-04-17 19:59 | 46.60041 | 46.79396 | 37177 ft | 403 kts | 303° |
| 2026-04-17 19:59 | 46.63043 | 46.72501 | 37161 ft | 403 kts | 303° |
| 2026-04-17 20:00 | 46.66029 | 46.65623 | 37158 ft | 403 kts | 303° |
| 2026-04-17 20:00 | 46.69010 | 46.58745 | 37159 ft | 402 kts | 303° |
| 2026-04-17 20:01 | 46.71974 | 46.51884 | 37162 ft | 402 kts | 303° |
| 2026-04-17 20:01 | 46.74948 | 46.44989 | 37155 ft | 402 kts | 303° |
| 2026-04-17 20:02 | 46.77890 | 46.38145 | 37155 ft | 402 kts | 303° |
| 2026-04-17 20:02 | 46.80867 | 46.31206 | 37151 ft | 401 kts | 303° |
| 2026-04-17 20:03 | 46.83810 | 46.24330 | 37150 ft | 402 kts | 302° |
| 2026-04-17 20:03 | 46.86755 | 46.17432 | 37150 ft | 401 kts | 302° |
| 2026-04-17 20:04 | 46.89960 | 46.10786 | 37144 ft | 400 kts | 310° |
| 2026-04-17 20:04 | 46.93851 | 46.04980 | 37138 ft | 400 kts | 318° |
| 2026-04-17 20:05 | 46.98314 | 46.00202 | 37133 ft | 401 kts | 327° |
| 2026-04-17 20:05 | 47.03150 | 45.96485 | 37134 ft | 403 kts | 332° |
| 2026-04-17 20:06 | 47.08209 | 45.92946 | 37134 ft | 403 kts | 332° |
| 2026-04-17 20:06 | 47.13251 | 45.89419 | 37137 ft | 403 kts | 332° |
| 2026-04-17 20:07 | 47.18285 | 45.85887 | 37134 ft | 404 kts | 332° |
| 2026-04-17 20:07 | 47.23373 | 45.82310 | 37134 ft | 404 kts | 332° |
| 2026-04-17 20:08 | 47.28413 | 45.78756 | 37132 ft | 405 kts | 332° |
| 2026-04-17 20:08 | 47.33495 | 45.75165 | 37136 ft | 404 kts | 332° |
| 2026-04-17 20:09 | 47.38561 | 45.71578 | 37135 ft | 406 kts | 332° |
| 2026-04-17 20:09 | 47.43607 | 45.67995 | 37132 ft | 405 kts | 332° |
| 2026-04-17 20:10 | 47.48671 | 45.64396 | 37129 ft | 405 kts | 332° |
| 2026-04-17 20:10 | 47.53720 | 45.60798 | 37127 ft | 406 kts | 332° |
| 2026-04-17 20:11 | 47.58784 | 45.57182 | 37129 ft | 406 kts | 332° |
| 2026-04-17 20:11 | 47.63800 | 45.53592 | 37131 ft | 406 kts | 332° |
| 2026-04-17 20:12 | 47.68841 | 45.49976 | 37127 ft | 406 kts | 332° |
| 2026-04-17 20:12 | 47.73799 | 45.46384 | 37125 ft | 406 kts | 330° |
| 2026-04-17 20:13 | 47.78502 | 45.42340 | 37127 ft | 403 kts | 325° |
| 2026-04-17 20:13 | 47.82903 | 45.37633 | 37123 ft | 403 kts | 320° |
| 2026-04-17 20:14 | 47.87074 | 45.32249 | 37126 ft | 401 kts | 316° |
| 2026-04-17 20:14 | 47.91196 | 45.26676 | 37132 ft | 402 kts | 316° |
| 2026-04-17 20:15 | 47.95323 | 45.21079 | 37125 ft | 401 kts | 316° |
| 2026-04-17 20:15 | 47.99445 | 45.15481 | 37122 ft | 402 kts | 316° |
| 2026-04-17 20:16 | 48.03767 | 45.10183 | 37118 ft | 403 kts | 321° |
| 2026-04-17 20:16 | 48.08406 | 45.05394 | 37112 ft | 404 kts | 324° |
| 2026-04-17 20:17 | 48.13055 | 45.00729 | 37112 ft | 403 kts | 323° |
| 2026-04-17 20:17 | 48.17697 | 44.96061 | 37117 ft | 404 kts | 324° |
| 2026-04-17 20:18 | 48.22361 | 44.91362 | 37114 ft | 405 kts | 323° |
| 2026-04-17 20:18 | 48.27009 | 44.86667 | 37112 ft | 405 kts | 323° |
| 2026-04-17 20:19 | 48.31684 | 44.81937 | 37105 ft | 406 kts | 323° |
| 2026-04-17 20:19 | 48.36343 | 44.77206 | 37104 ft | 406 kts | 323° |
| 2026-04-17 20:20 | 48.41022 | 44.72449 | 37108 ft | 405 kts | 323° |
| 2026-04-17 20:20 | 48.45706 | 44.67676 | 37108 ft | 406 kts | 323° |
| 2026-04-17 20:21 | 48.50384 | 44.62898 | 37106 ft | 406 kts | 323° |
| 2026-04-17 20:21 | 48.55016 | 44.58148 | 37098 ft | 407 kts | 323° |
| 2026-04-17 20:22 | 48.59716 | 44.53316 | 37093 ft | 406 kts | 323° |
| 2026-04-17 20:22 | 48.64369 | 44.48522 | 37097 ft | 406 kts | 323° |
| 2026-04-17 20:23 | 48.69022 | 44.43716 | 37092 ft | 406 kts | 323° |
| 2026-04-17 20:23 | 48.73684 | 44.38929 | 37094 ft | 406 kts | 324° |
| 2026-04-17 20:24 | 48.78579 | 44.34657 | 37097 ft | 409 kts | 329° |
| 2026-04-17 20:24 | 48.83818 | 44.31100 | 37093 ft | 412 kts | 335° |
| 2026-04-17 20:25 | 48.89185 | 44.28032 | 37092 ft | 413 kts | 335° |
| 2026-04-17 20:25 | 48.94559 | 44.24995 | 37090 ft | 413 kts | 335° |
| 2026-04-17 20:26 | 48.99904 | 44.21963 | 37090 ft | 412 kts | 335° |
| 2026-04-17 20:26 | 49.05170 | 44.18971 | 37088 ft | 412 kts | 335° |
| 2026-04-17 20:27 | 49.10541 | 44.15911 | 37086 ft | 413 kts | 335° |
| 2026-04-17 20:27 | 49.15941 | 44.12824 | 37082 ft | 414 kts | 335° |
| 2026-04-17 20:28 | 49.21320 | 44.09745 | 37083 ft | 414 kts | 335° |
| 2026-04-17 20:28 | 49.26716 | 44.06646 | 37085 ft | 414 kts | 335° |
| 2026-04-17 20:29 | 49.32090 | 44.03555 | 37082 ft | 415 kts | 335° |
| 2026-04-17 20:29 | 49.37487 | 44.00442 | 37088 ft | 415 kts | 335° |
| 2026-04-17 20:30 | 49.45596 | 43.95754 | 37083 ft | 415 kts | 335° |
| 2026-04-17 20:30 | 49.50960 | 43.92493 | 37207 ft | 415 kts | 332° |
| 2026-04-17 20:31 | 49.53540 | 43.90599 | 37328 ft | 414 kts | 329° |
| 2026-04-17 20:31 | 49.56073 | 43.88538 | 37430 ft | 413 kts | 328° |
| 2026-04-17 20:31 | 49.61140 | 43.84298 | 37552 ft | 415 kts | 328° |
| 2026-04-17 20:32 | 49.66216 | 43.80031 | 37654 ft | 417 kts | 328° |
| 2026-04-17 20:32 | 49.71319 | 43.75734 | 37800 ft | 419 kts | 328° |
| 2026-04-17 20:33 | 49.76426 | 43.71426 | 37950 ft | 419 kts | 328° |
| 2026-04-17 20:33 | 49.81522 | 43.67120 | 38041 ft | 420 kts | 328° |
| 2026-04-17 20:34 | 49.86654 | 43.62772 | 38080 ft | 422 kts | 328° |
| 2026-04-17 20:34 | 49.91779 | 43.58420 | 38076 ft | 423 kts | 328° |
| 2026-04-17 20:35 | 49.96935 | 43.54030 | 38069 ft | 424 kts | 328° |
| 2026-04-17 20:35 | 50.02071 | 43.49647 | 38066 ft | 424 kts | 328° |
| 2026-04-17 20:36 | 50.07254 | 43.45212 | 38078 ft | 424 kts | 328° |
| 2026-04-17 20:36 | 50.12400 | 43.40799 | 38071 ft | 424 kts | 328° |
| 2026-04-17 20:37 | 50.17558 | 43.36363 | 38067 ft | 425 kts | 328° |
| 2026-04-17 20:37 | 50.22746 | 43.31890 | 38065 ft | 425 kts | 327° |
| 2026-04-17 20:38 | 50.27924 | 43.27416 | 38064 ft | 425 kts | 327° |
| 2026-04-17 20:38 | 50.33056 | 43.22973 | 38061 ft | 426 kts | 327° |
| 2026-04-17 20:39 | 50.38243 | 43.18468 | 38061 ft | 426 kts | 327° |
| 2026-04-17 20:39 | 50.43422 | 43.13958 | 38060 ft | 426 kts | 327° |
| 2026-04-17 20:40 | 50.48566 | 43.09468 | 38057 ft | 426 kts | 327° |
| 2026-04-17 20:40 | 50.53745 | 43.04937 | 38060 ft | 427 kts | 327° |
| 2026-04-17 20:41 | 50.58926 | 43.00396 | 38052 ft | 427 kts | 327° |
| 2026-04-17 20:41 | 50.64102 | 42.95843 | 38051 ft | 428 kts | 327° |
| 2026-04-17 20:42 | 50.69369 | 42.91522 | 38049 ft | 431 kts | 331° |
| 2026-04-17 20:42 | 50.74937 | 42.87995 | 38049 ft | 434 kts | 336° |
| 2026-04-17 20:43 | 50.80622 | 42.84821 | 38045 ft | 434 kts | 336° |
| 2026-04-17 20:43 | 50.86259 | 42.81688 | 38046 ft | 434 kts | 336° |
| 2026-04-17 20:44 | 50.91943 | 42.78513 | 38040 ft | 434 kts | 336° |
| 2026-04-17 20:44 | 50.97645 | 42.75317 | 38032 ft | 435 kts | 336° |
| 2026-04-17 20:45 | 51.03330 | 42.72118 | 38034 ft | 435 kts | 336° |
| 2026-04-17 20:45 | 51.09005 | 42.68917 | 38037 ft | 436 kts | 336° |
| 2026-04-17 20:46 | 51.14486 | 42.65818 | 38035 ft | 436 kts | 336° |
| 2026-04-17 20:46 | 51.20200 | 42.62579 | 38029 ft | 437 kts | 336° |
| 2026-04-17 20:47 | 51.25911 | 42.59331 | 38032 ft | 437 kts | 336° |
| 2026-04-17 20:47 | 51.31641 | 42.56068 | 38029 ft | 438 kts | 336° |
| 2026-04-17 20:48 | 51.37364 | 42.52798 | 38028 ft | 439 kts | 336° |
| 2026-04-17 20:48 | 51.43098 | 42.49513 | 38023 ft | 439 kts | 336° |
| 2026-04-17 20:49 | 51.48833 | 42.46220 | 38026 ft | 439 kts | 336° |
| 2026-04-17 20:49 | 51.54558 | 42.42922 | 38023 ft | 439 kts | 336° |
| 2026-04-17 20:50 | 51.60318 | 42.39596 | 38013 ft | 440 kts | 336° |
| 2026-04-17 20:50 | 51.66077 | 42.36261 | 38020 ft | 441 kts | 336° |
| 2026-04-17 20:51 | 51.71833 | 42.32917 | 38022 ft | 442 kts | 335° |
| 2026-04-17 20:51 | 51.77602 | 42.29560 | 38010 ft | 442 kts | 335° |
| 2026-04-17 20:52 | 51.83353 | 42.26201 | 38010 ft | 443 kts | 335° |
| 2026-04-17 20:52 | 51.89146 | 42.22813 | 38013 ft | 443 kts | 336° |
| 2026-04-17 20:53 | 51.94930 | 42.19418 | 38002 ft | 443 kts | 336° |
| 2026-04-17 20:53 | 52.00707 | 42.16020 | 37997 ft | 444 kts | 336° |
| 2026-04-17 20:54 | 52.06536 | 42.12581 | 38003 ft | 445 kts | 336° |
| 2026-04-17 20:54 | 52.12359 | 42.09189 | 38000 ft | 446 kts | 337° |
| 2026-04-17 20:55 | 52.18241 | 42.05968 | 37998 ft | 447 kts | 337° |
| 2026-04-17 20:55 | 52.24107 | 42.02747 | 38003 ft | 447 kts | 337° |
| 2026-04-17 20:56 | 52.29985 | 41.99505 | 37999 ft | 448 kts | 339° |
| 2026-04-17 20:56 | 52.36055 | 41.97165 | 37995 ft | 453 kts | 347° |
| 2026-04-17 20:57 | 52.42364 | 41.96050 | 37997 ft | 458 kts | 353° |
| 2026-04-17 20:57 | 52.48705 | 41.96051 | 38001 ft | 461 kts | 358° |
| 2026-04-17 20:58 | 52.55096 | 41.96444 | 37999 ft | 460 kts | 358° |
| 2026-04-17 20:58 | 52.61475 | 41.96777 | 38094 ft | 460 kts | 356° |
| 2026-04-17 20:59 | 52.67738 | 41.95620 | 38010 ft | 452 kts | 342° |
| 2026-04-17 20:59 | 52.73603 | 41.92165 | 37995 ft | 445 kts | 329° |
| 2026-04-17 21:00 | 52.78721 | 41.86769 | 37982 ft | 439 kts | 318° |
| 2026-04-17 21:00 | 52.83445 | 41.80421 | 37983 ft | 439 kts | 317° |
| 2026-04-17 21:01 | 52.88157 | 41.74004 | 37968 ft | 440 kts | 317° |
| 2026-04-17 21:01 | 52.92891 | 41.67571 | 37976 ft | 441 kts | 317° |
| 2026-04-17 21:02 | 52.97595 | 41.61173 | 37968 ft | 441 kts | 317° |
| 2026-04-17 21:02 | 53.02354 | 41.54686 | 37975 ft | 441 kts | 317° |
| 2026-04-17 21:03 | 53.07060 | 41.48253 | 37986 ft | 441 kts | 317° |
| 2026-04-17 21:03 | 53.11778 | 41.41782 | 38001 ft | 442 kts | 317° |
| 2026-04-17 21:04 | 53.16547 | 41.35312 | 37990 ft | 443 kts | 320° |
| 2026-04-17 21:04 | 53.21359 | 41.29889 | 37990 ft | 447 kts | 325° |
| 2026-04-17 21:05 | 53.26904 | 41.25137 | 37992 ft | 451 kts | 333° |
| 2026-04-17 21:05 | 53.32777 | 41.21537 | 37997 ft | 454 kts | 339° |
| 2026-04-17 21:06 | 53.38792 | 41.18484 | 37994 ft | 454 kts | 339° |
| 2026-04-17 21:06 | 53.44861 | 41.15416 | 38001 ft | 454 kts | 339° |
| 2026-04-17 21:07 | 53.50896 | 41.12338 | 38000 ft | 454 kts | 339° |
| 2026-04-17 21:07 | 53.56961 | 41.09226 | 37998 ft | 454 kts | 339° |
| 2026-04-17 21:08 | 53.62925 | 41.05915 | 37995 ft | 450 kts | 332° |
| 2026-04-17 21:08 | 53.68201 | 41.00478 | 38001 ft | 443 kts | 317° |
| 2026-04-17 21:09 | 53.72349 | 40.92941 | 37995 ft | 438 kts | 302° |
| 2026-04-17 21:09 | 53.75183 | 40.83994 | 38000 ft | 434 kts | 291° |
| 2026-04-17 21:10 | 53.77581 | 40.74633 | 37994 ft | 434 kts | 291° |
| 2026-04-17 21:10 | 53.79979 | 40.65228 | 37986 ft | 435 kts | 291° |
| 2026-04-17 21:11 | 53.82365 | 40.55882 | 37975 ft | 436 kts | 291° |
| 2026-04-17 21:11 | 53.84772 | 40.46427 | 37974 ft | 436 kts | 291° |
| 2026-04-17 21:12 | 53.87149 | 40.37049 | 37977 ft | 436 kts | 291° |
| 2026-04-17 21:12 | 53.89540 | 40.27586 | 37970 ft | 436 kts | 291° |
| 2026-04-17 21:13 | 53.91910 | 40.18191 | 37977 ft | 436 kts | 291° |
| 2026-04-17 21:13 | 53.94278 | 40.08770 | 37973 ft | 437 kts | 290° |
| 2026-04-17 21:14 | 53.96656 | 39.99266 | 37979 ft | 438 kts | 290° |
| 2026-04-17 21:14 | 53.99017 | 39.89787 | 37972 ft | 438 kts | 290° |
| 2026-04-17 21:15 | 54.01372 | 39.80293 | 37973 ft | 438 kts | 290° |
| 2026-04-17 21:15 | 54.03742 | 39.70694 | 37974 ft | 438 kts | 291° |
| 2026-04-17 21:16 | 54.06076 | 39.61198 | 37965 ft | 438 kts | 291° |
| 2026-04-17 21:16 | 54.08399 | 39.51722 | 37973 ft | 428 kts | 291° |
| 2026-04-17 21:17 | 54.10671 | 39.42400 | 37968 ft | 428 kts | 291° |
| 2026-04-17 21:17 | 54.12403 | 39.35267 | 37975 ft | 428 kts | 291° |
| 2026-04-17 21:18 | 54.14681 | 39.25855 | 37966 ft | 428 kts | 290° |
| 2026-04-17 21:18 | 54.16936 | 39.16499 | 37965 ft | 427 kts | 290° |
| 2026-04-17 21:19 | 54.17825 | 39.12804 | 37763 ft | 428 kts | 290° |
| 2026-04-17 21:19 | 54.18145 | 39.11472 | 37614 ft | 429 kts | 290° |